Terminal Aerodrome Forecast
Issued by NWS Brownsville, TX

Home | Current Version | Previous Version | Text Only | Print | Product List | Glossary On
Versions: 1 2 3 4 5 6 7 8 9 10 11 12 13 14 15
000
FTUS44 KBRO 251120
TAFHRL
TAF
KHRL 251120Z 2512/2612 13007KT P6SM SCT100
     FM251500 14012KT P6SM SCT050 BKN100
     FM251800 16015KT P6SM VCSH SCT040 BKN050 PROB30 2521/2603 -TSRA
      SCT030 BKN040CB
     FM260300 12010KT P6SM VCSH SCT030 BKN040=

USA.gov is the U.S. government's official web portal to all federal, state and local government web resources and services.